Photometre #744[NE_1.6] Ben_Salem AOT

File : 20190928_744.hum

28/09/2019,05:56:58,TEMP=19.2,BA=5.44,STAT.A=0.5,ExtBa=12.94
28/09/2019,06:00:08,TEMP=19.7,BA=5.44,STAT.A=0.5,ExtBa=12.80
28/09/2019,06:03:50,TEMP=20.0,BA=5.44,STAT.A=0.5,ExtBa=12.81
28/09/2019,06:08:14,TEMP=20.3,BA=5.44,STAT.A=0.5,ExtBa=12.83
28/09/2019,06:13:32,TEMP=20.7,BA=5.52,STAT.A=0.5,ExtBa=12.88
28/09/2019,06:20:03,TEMP=21.1,BA=5.44,STAT.A=0.5,ExtBa=12.95
28/09/2019,06:28:18,TEMP=21.8,BA=5.44,STAT.B=0.5,ExtBa=13.08
28/09/2019,06:37:11,TEMP=23.2,BA=5.36,STAT.A=0.5,ExtBa=12.80
28/09/2019,06:39:07,TEMP=23.5,BA=5.36,STAT.A=0.5,ExtBa=12.86
28/09/2019,06:41:37,TEMP=23.6,BA=5.36,STAT.A=0.5,ExtBa=12.92
28/09/2019,06:47:15,TEMP=23.4,BA=5.36,STAT.A=0.5,ExtBa=13.17
28/09/2019,06:53:42,TEMP=23.9,BA=5.60,STAT.C=0.5,ExtBa=13.36
28/09/2019,07:07:41,TEMP=25.8,BA=5.36,STAT.A=0.5,ExtBa=12.86
28/09/2019,07:10:01,TEMP=26.0,BA=5.36,STAT.A=0.5,ExtBa=13.01
28/09/2019,07:20:32,TEMP=26.3,BA=5.60,STAT.A=0.5,ExtBa=13.59
28/09/2019,07:33:24,TEMP=27.4,BA=5.60,STAT.A=0.5,ExtBa=13.67
28/09/2019,07:49:32,TEMP=29.2,BA=5.60,STAT.B=0.5,ExtBa=13.74
28/09/2019,07:58:24,TEMP=30.3,BA=5.40,STAT.D=0.5,ExtBa=13.25
28/09/2019,08:11:40,TEMP=29.8,BA=5.60,STAT.F,ExtBa=13.80
28/09/2019,08:26:39,TEMP=30.3,BA=5.40,STAT.D=0.5,ExtBa=13.49
28/09/2019,08:41:39,TEMP=30.1,BA=5.60,STAT.D=0.5,ExtBa=13.92
28/09/2019,08:56:39,TEMP=30.5,BA=5.60,STAT.D=0.5,ExtBa=14.11
28/09/2019,09:11:41,TEMP=30.9,BA=5.60,STAT.F,ExtBa=14.25
28/09/2019,09:29:17,TEMP=31.1,BA=5.40,STAT.D=0.5,ExtBa=14.15
28/09/2019,09:41:39,TEMP=31.7,BA=5.60,STAT.D=0.5,ExtBa=14.29
28/09/2019,09:56:40,TEMP=32.3,BA=5.60,STAT.D=0.5,ExtBa=14.30
28/09/2019,10:11:41,TEMP=32.9,BA=5.60,STAT.F,ExtBa=14.30
28/09/2019,10:26:40,TEMP=32.9,BA=5.60,STAT.D=0.5,ExtBa=14.30
28/09/2019,10:41:40,TEMP=33.3,BA=5.60,STAT.D=0.5,ExtBa=14.28
28/09/2019,10:56:40,TEMP=34.2,BA=5.60,STAT.D=0.5,ExtBa=14.26
28/09/2019,11:11:41,TEMP=34.7,BA=5.56,STAT.F,ExtBa=14.27
28/09/2019,11:26:40,TEMP=35.6,BA=5.52,STAT.D=0.5,ExtBa=14.24
28/09/2019,11:41:40,TEMP=35.9,BA=5.52,STAT.D=0.5,ExtBa=14.21
28/09/2019,11:56:40,TEMP=36.8,BA=5.52,STAT.D=0.5,ExtBa=14.17
28/09/2019,12:11:41,TEMP=36.8,BA=5.48,STAT.F,ExtBa=14.16
28/09/2019,12:26:40,TEMP=36.7,BA=5.36,STAT.D=0.5,ExtBa=13.72
28/09/2019,12:41:39,TEMP=36.9,BA=5.44,STAT.D=0.5,ExtBa=14.11
28/09/2019,12:56:39,TEMP=37.1,BA=5.44,STAT.D=0.5,ExtBa=14.11
28/09/2019,13:11:41,TEMP=37.0,BA=5.40,STAT.F,ExtBa=14.09
28/09/2019,13:26:39,TEMP=36.8,BA=5.32,STAT.D=0.5,ExtBa=13.57
28/09/2019,13:41:39,TEMP=36.6,BA=5.40,STAT.D=0.5,ExtBa=14.04
28/09/2019,13:56:39,TEMP=36.7,BA=5.40,STAT.D=0.5,ExtBa=14.02
28/09/2019,14:11:40,TEMP=36.1,BA=5.40,STAT.F,ExtBa=13.99
28/09/2019,14:26:39,TEMP=36.2,BA=5.28,STAT.D=0.5,ExtBa=13.32
28/09/2019,14:33:48,TEMP=36.0,BA=5.36,STAT.B=0.5,ExtBa=13.74
28/09/2019,14:49:56,TEMP=35.6,BA=5.28,STAT.A=0.5,ExtBa=13.58
28/09/2019,15:02:48,TEMP=35.9,BA=5.40,STAT.A=0.5,ExtBa=13.68
28/09/2019,15:13:19,TEMP=35.6,BA=5.40,STAT.A=0.5,ExtBa=13.72
28/09/2019,15:22:08,TEMP=35.5,BA=5.40,STAT.A=0.5,ExtBa=13.69
28/09/2019,15:29:38,TEMP=35.4,BA=5.40,STAT.C=0.5,ExtBa=13.58
28/09/2019,15:44:08,TEMP=35.4,BA=5.28,STAT.A=0.5,ExtBa=13.02
28/09/2019,15:46:02,TEMP=35.5,BA=5.28,STAT.A=0.5,ExtBa=13.05
28/09/2019,15:47:57,TEMP=35.5,BA=5.28,STAT.A=0.5,ExtBa=13.04
28/09/2019,15:51:05,TEMP=34.9,BA=5.36,STAT.A=0.5,ExtBa=13.08
28/09/2019,15:55:01,TEMP=34.6,BA=5.36,STAT.B=0.5,ExtBa=13.09
28/09/2019,16:04:46,TEMP=34.7,BA=5.28,STAT.A=0.5,ExtBa=12.97
28/09/2019,16:09:46,TEMP=34.2,BA=5.28,STAT.A=0.5,ExtBa=13.03
28/09/2019,16:15:04,TEMP=34.0,BA=5.28,STAT.A=0.5,ExtBa=13.01
28/09/2019,16:22:23,TEMP=33.5,BA=5.28,STAT.A=0.5,ExtBa=13.01
28/09/2019,16:24:26,TEMP=34.0,BA=5.28,STAT.A=0.5,ExtBa=12.94
28/09/2019,16:26:26,TEMP=34.0,BA=5.28,STAT.A=0.5,ExtBa=12.93